PST,Max TemperatureF,Mean TemperatureF,Min TemperatureF,Max Dew PointF,MeanDew PointF,Min DewpointF,Max Humidity, Mean Humidity, Min Humidity, Max Sea Level PressureIn, Mean Sea Level PressureIn, Min Sea Level PressureIn, Max VisibilityMiles, Mean VisibilityMiles, Min VisibilityMiles, Max Wind SpeedMPH, Mean Wind SpeedMPH, Max Gust SpeedMPH,PrecipitationIn, CloudCover, Events, WindDirDegrees
2014-1-1,44,40,37,41,39,35,97,92,85,30.41,30.36,30.26,10,9,0,6,3,,0.04,8,Fog-Rain,140
2014-1-2,46,44,39,43,41,30,96,91,68,30.24,30.03,29.90,10,9,4,17,5,24,0.48,7,Rain,266
2014-1-3,48,40,32,36,31,27,93,72,52,30.39,30.21,30.03,10,10,10,14,10,22,0.00,0,,269
2014-1-4,42,35,28,35,30,25,96,85,73,30.49,30.46,30.39,10,10,10,9,4,,0.00,3,,112
2014-1-5,42,34,27,34,30,25,96,85,62,30.53,30.47,30.35,10,10,10,8,5,,0.00,4,,125
2014-1-6,41,37,33,35,33,30,92,87,76,30.33,30.21,30.12,10,10,10,7,4,,0.00,5,,138
2014-1-7,43,40,37,42,39,34,100,94,89,30.10,30.00,29.96,10,6,0,7,2,,0.28,8,Fog-Rain,223
2014-1-8,46,42,39,43,40,34,100,93,63,29.98,29.80,29.60,10,3,0,20,3,30,0.15,7,Fog-Rain,225
2014-1-9,46,42,37,41,37,32,93,79,65,29.93,29.81,29.66,10,10,9,21,11,37,0.01,6,Rain,256
2014-1-10,48,45,42,43,41,38,100,87,68,30.05,29.78,29.37,10,7,2,17,6,28,0.72,7,Rain,248
2014-1-11,48,46,44,46,41,31,97,86,56,29.81,29.38,29.21,10,7,2,28,6,40,1.13,7,Rain,263
2014-1-12,53,47,41,44,39,32,96,76,58,30.25,30.03,29.84,10,10,6,21,11,31,0.04,8,Rain,274
2014-1-13,57,51,42,45,43,39,93,77,57,30.61,30.45,30.27,10,10,10,14,8,25,0.00,6,Rain,262
2014-1-14,51,46,42,45,41,39,92,83,68,30.66,30.63,30.59,10,10,10,8,5,,0.00,6,,250
2014-1-15,50,44,39,43,39,36,100,88,66,30.62,30.57,30.53,10,5,0,15,6,,0.00,4,Fog,168
2014-1-16,45,43,41,41,39,38,96,87,82,30.53,30.47,30.37,10,9,2,9,7,,0.00,8,,121
2014-1-17,43,41,39,39,39,38,97,92,85,30.37,30.25,30.17,10,7,1,10,8,,0.00,8,,121
2014-1-18,48,42,37,42,39,36,97,88,71,30.27,30.21,30.18,10,9,2,9,4,,0.00,7,,246
2014-1-19,44,42,41,41,40,38,93,90,85,30.33,30.24,30.18,10,7,1,9,4,,0.00,8,,108
2014-1-20,43,36,30,38,35,28,93,85,76,30.36,30.32,30.29,10,10,7,8,5,,0.00,5,,117
2014-1-21,44,37,30,39,37,28,100,87,79,30.33,30.28,30.24,10,10,9,8,4,,0.00,5,,160
2014-1-22,45,40,34,43,39,32,97,91,82,30.47,30.41,30.32,10,8,0,8,3,,0.01,7,Fog-Rain,151
2014-1-23,44,37,30,39,35,29,97,92,82,30.49,30.46,30.41,10,10,5,7,4,,0.00,5,,140
2014-1-24,50,40,30,39,33,28,96,85,61,30.45,30.38,30.32,10,10,10,7,4,,0.00,0,,139
2014-1-25,44,36,28,40,34,26,97,93,79,30.39,30.33,30.29,10,4,0,7,1,,0.00,3,Fog,56
2014-1-26,48,38,28,45,33,27,100,95,71,30.28,30.20,30.11,10,2,0,4,1,,0.00,2,Fog,139
2014-1-27,39,37,35,39,37,34,100,98,89,30.22,30.17,30.13,10,3,0,7,5,,0.05,8,Fog-Rain,141
2014-1-28,46,42,39,42,41,39,100,93,86,30.21,30.13,29.92,10,7,2,6,3,,0.35,8,Rain,115
2014-1-29,46,42,37,47,43,35,100,98,89,29.91,29.75,29.69,10,6,2,10,5,,0.75,7,Rain,133
2014-1-30,45,40,35,44,39,34,100,90,76,29.94,29.84,29.79,10,10,4,9,3,,0.17,7,Rain,194
2014-1-31,43,36,30,37,31,27,100,80,53,30.16,30.08,29.96,10,10,9,8,5,,0.02,6,Rain,170